createdAt,value
2018-05-18T00:01:01.790Z,11.89
2018-05-18T00:02:11.569Z,11.76
2018-05-18T00:03:21.273Z,11.83
2018-05-18T00:04:30.989Z,11.73
2018-05-18T00:05:40.696Z,11.73
2018-05-18T00:06:50.412Z,11.74
2018-05-18T00:08:00.375Z,11.7
2018-05-18T00:09:10.356Z,11.77
2018-05-18T00:10:20.061Z,11.71
2018-05-18T00:11:30.021Z,11.68
2018-05-18T00:12:40.071Z,11.67
2018-05-18T00:13:50.037Z,11.63
2018-05-18T00:15:00.016Z,11.62
2018-05-18T00:16:09.740Z,11.63
2018-05-18T00:17:19.733Z,11.59
2018-05-18T00:18:29.180Z,11.56
2018-05-18T00:19:38.904Z,11.62
2018-05-18T00:20:48.865Z,11.63
2018-05-18T00:21:58.829Z,11.58
2018-05-18T00:23:08.812Z,11.49
2018-05-18T00:24:18.268Z,11.44
2018-05-18T00:25:28.234Z,11.49
2018-05-18T00:26:37.960Z,11.48
2018-05-18T00:27:47.669Z,11.45
2018-05-18T00:28:57.722Z,11.43
2018-05-18T00:30:07.700Z,11.45
2018-05-18T00:31:17.779Z,11.52
2018-05-18T00:32:27.747Z,11.51
2018-05-18T00:33:37.474Z,11.49
2018-05-18T00:34:47.194Z,11.43
2018-05-18T00:35:56.904Z,11.38
2018-05-18T00:37:06.872Z,11.43
2018-05-18T00:38:16.924Z,11.35
2018-05-18T00:39:26.636Z,11.27
2018-05-18T00:40:36.633Z,11.4
2018-05-18T00:41:46.598Z,11.37
2018-05-18T00:42:56.564Z,11.41
2018-05-18T00:44:06.531Z,11.35
2018-05-18T00:45:16.506Z,11.23
2018-05-18T00:46:26.236Z,11.25
2018-05-18T00:47:36.203Z,11.31
2018-05-18T00:48:45.402Z,11.3
2018-05-18T00:49:55.115Z,11.27
2018-05-18T00:51:05.096Z,11.26
2018-05-18T00:52:15.060Z,11.23
2018-05-18T00:53:25.032Z,11.19
2018-05-18T00:54:34.805Z,11.25
2018-05-18T00:55:44.510Z,11.19
2018-05-18T00:56:54.482Z,11.2
2018-05-18T00:58:04.469Z,11.18
2018-05-18T00:59:14.167Z,11.19
2018-05-18T01:00:23.871Z,11.25
2018-05-18T01:01:33.582Z,11.2
2018-05-18T01:02:43.281Z,11.1
2018-05-18T01:03:53.248Z,11.16
2018-05-18T01:05:02.700Z,11.1
2018-05-18T01:06:12.664Z,11.05
2018-05-18T01:07:22.626Z,11.15
2018-05-18T01:08:32.612Z,11.1
2018-05-18T01:09:42.578Z,11.07
2018-05-18T01:10:52.616Z,11.07
2018-05-18T01:12:02.340Z,11.05
2018-05-18T01:13:12.315Z,11.05
2018-05-18T01:14:22.298Z,11.13
2018-05-18T01:15:31.743Z,10.97
2018-05-18T01:16:41.709Z,10.95
2018-05-18T01:17:51.675Z,10.94
2018-05-18T01:19:01.384Z,11.04
2018-05-18T01:20:11.092Z,11.01
2018-05-18T01:21:20.549Z,10.89
2018-05-18T01:22:30.521Z,10.94
2018-05-18T01:23:40.493Z,10.98
2018-05-18T01:24:50.453Z,10.95
2018-05-18T01:26:00.175Z,10.9
2018-05-18T01:27:10.145Z,10.94
2018-05-18T01:28:19.599Z,10.89
2018-05-18T01:29:29.575Z,10.9
2018-05-18T01:30:39.560Z,10.87
2018-05-18T01:31:49.258Z,10.9
2018-05-18T01:32:58.970Z,10.94
2018-05-18T01:34:08.945Z,10.87
2018-05-18T01:35:18.917Z,10.89
2018-05-18T01:36:28.876Z,10.87
2018-05-18T01:37:38.602Z,10.83
2018-05-18T01:38:48.598Z,10.84
2018-05-18T01:39:58.047Z,10.86
2018-05-18T01:41:08.021Z,10.86
2018-05-18T01:42:17.981Z,10.77
2018-05-18T01:43:27.688Z,10.82
2018-05-18T01:44:37.682Z,10.84
2018-05-18T01:45:47.137Z,10.75
2018-05-18T01:46:56.856Z,10.76
2018-05-18T01:48:06.839Z,10.83
2018-05-18T01:49:16.813Z,10.79
2018-05-18T01:50:26.784Z,10.82
2018-05-18T01:51:36.744Z,10.79
2018-05-18T01:52:47.111Z,10.8
2018-05-18T01:53:57.071Z,10.79
2018-05-18T01:55:07.246Z,10.82
2018-05-18T01:56:17.221Z,10.82
2018-05-18T01:57:27.190Z,10.79
2018-05-18T01:58:36.897Z,10.69
2018-05-18T01:59:46.879Z,10.68
2018-05-18T02:00:56.844Z,10.62
2018-05-18T02:02:06.551Z,10.68
2018-05-18T02:03:16.261Z,10.67
2018-05-18T02:04:25.972Z,10.62
2018-05-18T02:05:35.943Z,10.67
2018-05-18T02:06:45.912Z,10.65
2018-05-18T02:07:55.874Z,10.59
2018-05-18T02:09:05.847Z,10.55
2018-05-18T02:10:15.554Z,10.59
2018-05-18T02:11:25.377Z,10.55
2018-05-18T02:12:35.346Z,10.57
2018-05-18T02:13:44.797Z,10.43
2018-05-18T02:14:54.795Z,10.49
2018-05-18T02:16:04.500Z,10.43
2018-05-18T02:17:14.465Z,10.39
2018-05-18T02:18:24.188Z,10.42
2018-05-18T02:19:33.888Z,10.39
2018-05-18T02:20:43.070Z,10.41
2018-05-18T02:21:52.781Z,10.34
2018-05-18T02:23:02.754Z,10.36
2018-05-18T02:24:12.748Z,10.28
2018-05-18T02:25:22.504Z,10.31
2018-05-18T02:26:32.480Z,10.28
2018-05-18T02:27:42.446Z,10.18
2018-05-18T02:28:52.427Z,10.28
2018-05-18T02:30:02.404Z,10.24
2018-05-18T02:31:12.386Z,10.21
2018-05-18T02:32:22.106Z,10.3
2018-05-18T02:33:32.079Z,10.25
2018-05-18T02:34:42.046Z,10.34
2018-05-18T02:35:51.759Z,10.24
2018-05-18T02:37:01.475Z,10.23
2018-05-18T02:38:11.453Z,10.21
2018-05-18T02:39:21.177Z,10.3
2018-05-18T02:40:30.902Z,10.21
2018-05-18T02:41:40.871Z,10.2
2018-05-18T02:42:50.662Z,10.17
2018-05-18T02:44:00.368Z,10.25
2018-05-18T02:45:10.354Z,10.13
2018-05-18T02:46:20.339Z,10.15
2018-05-18T02:47:30.324Z,10.2
2018-05-18T02:48:40.067Z,10.21
2018-05-18T02:49:50.137Z,10.21
2018-05-18T02:51:00.112Z,10.13
2018-05-18T02:52:10.088Z,10.06
2018-05-18T02:53:20.096Z,10.03
2018-05-18T02:54:30.071Z,10.13
2018-05-18T02:55:40.060Z,10.1
2018-05-18T02:56:50.055Z,10.03
2018-05-18T02:58:00.013Z,10.1
2018-05-18T02:59:10.044Z,10.09
2018-05-18T03:00:20.040Z,10.05
2018-05-18T03:01:29.755Z,10.03
2018-05-18T03:02:39.735Z,10.05
2018-05-18T03:03:49.697Z,10.1
2018-05-18T03:04:59.690Z,10.06
2018-05-18T03:06:09.653Z,10.09
2018-05-18T03:07:19.626Z,10.06
2018-05-18T03:08:29.078Z,10.05
2018-05-18T03:09:38.872Z,10.1
2018-05-18T03:10:48.834Z,10.09
2018-05-18T03:11:58.802Z,10.03
2018-05-18T03:13:08.258Z,10.05
2018-05-18T03:14:18.221Z,10.03
2018-05-18T03:15:27.403Z,10.03
2018-05-18T03:16:37.122Z,10.1
2018-05-18T03:17:47.094Z,10.03
2018-05-18T03:18:57.061Z,10.02
2018-05-18T03:20:07.062Z,10.05
2018-05-18T03:21:16.779Z,9.95
2018-05-18T03:22:26.487Z,9.99
2018-05-18T03:23:35.949Z,10.05
2018-05-18T03:24:45.921Z,9.97
2018-05-18T03:25:55.630Z,10
2018-05-18T03:27:05.608Z,10
2018-05-18T03:28:15.565Z,10
2018-05-18T03:29:25.539Z,10.03
2018-05-18T03:30:35.503Z,10.03
2018-05-18T03:31:45.484Z,10.03
2018-05-18T03:32:55.462Z,10.02
2018-05-18T03:34:05.440Z,10.05
2018-05-18T03:35:15.415Z,10.06
2018-05-18T03:36:25.374Z,10.05
2018-05-18T03:37:35.079Z,10.03
2018-05-18T03:38:45.053Z,10.05
2018-05-18T03:39:55.022Z,10.1
2018-05-18T03:41:04.989Z,10.06
2018-05-18T03:42:14.698Z,10.1
2018-05-18T03:43:24.656Z,10.09
2018-05-18T03:44:34.623Z,10.06
2018-05-18T03:45:44.582Z,10.09
2018-05-18T03:46:54.530Z,10.03
2018-05-18T03:48:04.249Z,10.07
2018-05-18T03:49:13.964Z,10.09
2018-05-18T03:50:23.927Z,10.13
2018-05-18T03:51:33.717Z,10.09
2018-05-18T03:52:43.684Z,10.12
2018-05-18T03:53:53.397Z,10.05
2018-05-18T03:55:03.363Z,10.18
2018-05-18T03:56:13.339Z,10.07
2018-05-18T03:57:23.302Z,10.12
2018-05-18T03:58:33.287Z,10.1
2018-05-18T03:59:43.250Z,10.15
2018-05-18T04:00:53.232Z,10.21
2018-05-18T04:02:03.190Z,10.27
2018-05-18T04:03:13.165Z,10.24
2018-05-18T04:04:22.869Z,10.24
2018-05-18T04:05:32.869Z,10.24
2018-05-18T04:06:42.317Z,10.21
2018-05-18T04:07:52.204Z,10.27
2018-05-18T04:09:02.334Z,10.25
2018-05-18T04:10:12.302Z,10.25
2018-05-18T04:11:22.430Z,10.21
2018-05-18T04:12:32.477Z,10.28
2018-05-18T04:13:42.457Z,10.27
2018-05-18T04:14:52.173Z,10.2
2018-05-18T04:16:01.889Z,10.28
2018-05-18T04:17:11.856Z,10.31
2018-05-18T04:18:21.587Z,10.36
2018-05-18T04:19:31.560Z,10.2
2018-05-18T04:20:41.539Z,10.24
2018-05-18T04:21:51.507Z,10.38
2018-05-18T04:23:00.959Z,10.3
2018-05-18T04:24:10.926Z,10.3
2018-05-18T04:25:20.913Z,10.34
2018-05-18T04:26:30.713Z,10.34
2018-05-18T04:27:40.419Z,10.34
2018-05-18T04:28:50.405Z,10.48
2018-05-18T04:30:00.464Z,10.39
2018-05-18T04:31:10.553Z,10.43
2018-05-18T04:32:20.264Z,10.46
2018-05-18T04:33:29.973Z,10.48
2018-05-18T04:34:39.939Z,10.46
2018-05-18T04:35:49.423Z,10.55
2018-05-18T04:36:59.151Z,10.48
2018-05-18T04:38:09.127Z,10.55
2018-05-18T04:39:19.106Z,10.58
2018-05-18T04:40:28.825Z,10.58
2018-05-18T04:41:38.795Z,10.58
2018-05-18T04:42:48.505Z,10.58
2018-05-18T04:43:58.208Z,10.62
2018-05-18T04:45:08.163Z,10.69
2018-05-18T04:46:18.138Z,10.59
2018-05-18T04:47:28.206Z,10.68
2018-05-18T04:48:37.914Z,10.77
2018-05-18T04:49:47.624Z,10.77
2018-05-18T04:50:57.809Z,10.79
2018-05-18T04:52:07.982Z,10.71
2018-05-18T04:53:17.951Z,10.79
2018-05-18T04:54:27.941Z,10.87
2018-05-18T04:55:37.912Z,10.9
2018-05-18T04:56:47.615Z,10.95
2018-05-18T04:57:57.319Z,10.92
2018-05-18T04:59:07.303Z,11
2018-05-18T05:00:17.358Z,10.97
2018-05-18T05:01:27.079Z,11.02
2018-05-18T05:02:37.066Z,11.07
2018-05-18T05:03:46.773Z,11.04
2018-05-18T05:04:56.733Z,11.01
2018-05-18T05:06:06.470Z,11.15
2018-05-18T05:07:16.187Z,11.07
2018-05-18T05:08:26.167Z,11.13
2018-05-18T05:09:35.873Z,11.18
2018-05-18T05:10:45.600Z,11.1
2018-05-18T05:11:55.308Z,11.1
2018-05-18T05:13:05.283Z,11.2
2018-05-18T05:14:15.241Z,11.2
2018-05-18T05:15:25.219Z,11.26
2018-05-18T05:16:35.197Z,11.35
2018-05-18T05:17:44.656Z,11.35
2018-05-18T05:18:54.774Z,11.45
2018-05-18T05:20:04.497Z,11.48
2018-05-18T05:21:14.489Z,11.45
2018-05-18T05:22:24.464Z,11.53
2018-05-18T05:23:34.532Z,11.53
2018-05-18T05:24:43.998Z,11.41
2018-05-18T05:25:53.456Z,11.48
2018-05-18T05:27:03.148Z,11.51
2018-05-18T05:28:12.877Z,11.62
2018-05-18T05:29:22.875Z,11.55
2018-05-18T05:30:33.000Z,11.71
2018-05-18T05:31:43.197Z,11.73
2018-05-18T05:32:52.931Z,11.68
2018-05-18T05:34:02.656Z,11.76
2018-05-18T05:35:12.716Z,11.68
2018-05-18T05:36:22.701Z,11.65
2018-05-18T05:37:32.425Z,11.7
2018-05-18T05:38:42.410Z,11.6
2018-05-18T05:39:52.130Z,11.73
2018-05-18T05:41:02.105Z,11.76
2018-05-18T05:42:12.068Z,11.62
2018-05-18T05:43:21.794Z,11.78
2018-05-18T05:44:31.255Z,11.8
2018-05-18T05:45:41.239Z,11.96
2018-05-18T05:46:51.424Z,11.96
2018-05-18T05:48:01.292Z,11.95
2018-05-18T05:49:11.012Z,12
2018-05-18T05:50:21.000Z,11.96
2018-05-18T05:51:30.981Z,12.14
2018-05-18T05:52:40.700Z,12.12
2018-05-18T05:53:50.849Z,12.03
2018-05-18T05:55:00.569Z,12.03
2018-05-18T05:56:10.058Z,12
2018-05-18T05:57:20.045Z,12.02
2018-05-18T05:58:29.691Z,11.96
2018-05-18T05:59:39.969Z,11.93
2018-05-18T06:00:49.953Z,12.03
2018-05-18T06:01:59.930Z,12.05
2018-05-18T06:03:09.922Z,12.08
2018-05-18T06:04:19.900Z,12.02
2018-05-18T06:05:29.946Z,12.1
2018-05-18T06:06:39.393Z,12.1
2018-05-18T06:07:48.853Z,12.14
2018-05-18T06:08:58.838Z,12.1
2018-05-18T06:10:08.593Z,12.1
2018-05-18T06:11:17.796Z,12.15
2018-05-18T06:12:27.568Z,12.17
2018-05-18T06:13:37.275Z,12.26
2018-05-18T06:14:47.238Z,12.39
2018-05-18T06:15:57.236Z,12.35
2018-05-18T06:17:07.226Z,12.23
2018-05-18T06:18:17.201Z,12.21
2018-05-18T06:19:26.987Z,12.2
2018-05-18T06:20:37.069Z,12.2
2018-05-18T06:21:47.088Z,12.17
2018-05-18T06:22:57.182Z,12.21
2018-05-18T06:24:07.193Z,12.33
2018-05-18T06:25:16.975Z,12.33
2018-05-18T06:26:26.978Z,12.32
2018-05-18T06:27:37.005Z,12.32
2018-05-18T06:28:46.953Z,12.33
2018-05-18T06:29:57.145Z,12.36
2018-05-18T06:31:07.151Z,12.36
2018-05-18T06:32:17.143Z,12.28
2018-05-18T06:33:26.859Z,12.17
2018-05-18T06:34:36.723Z,12.17
2018-05-18T06:35:46.897Z,12.14
2018-05-18T06:36:56.635Z,12.25
2018-05-18T06:38:06.623Z,12.23
2018-05-18T06:39:16.347Z,12.21
2018-05-18T06:40:26.331Z,12.21
2018-05-18T06:41:36.058Z,12.17
2018-05-18T06:42:46.092Z,12.25
2018-05-18T06:43:55.573Z,12.35
2018-05-18T06:45:05.566Z,12.36
2018-05-18T06:46:15.710Z,12.5
2018-05-18T06:47:25.696Z,12.62
2018-05-18T06:48:35.473Z,12.73
2018-05-18T06:49:45.443Z,12.81
2018-05-18T06:50:55.162Z,12.73
2018-05-18T06:52:05.424Z,12.7
2018-05-18T06:53:15.164Z,12.7
2018-05-18T06:54:25.241Z,12.76
2018-05-18T06:55:34.767Z,12.8
2018-05-18T06:56:44.763Z,12.68
2018-05-18T06:57:54.779Z,12.65
2018-05-18T06:59:04.233Z,12.62
2018-05-18T07:00:14.214Z,12.58
2018-05-18T07:01:24.206Z,12.72
2018-05-18T07:02:34.191Z,12.63
2018-05-18T07:03:44.247Z,12.75
2018-05-18T07:04:54.278Z,12.63
2018-05-18T07:06:03.773Z,12.78
2018-05-18T07:07:13.766Z,12.75
2018-05-18T07:08:23.835Z,12.73
2018-05-18T07:09:33.839Z,12.69
2018-05-18T07:10:44.073Z,12.78
2018-05-18T07:11:54.072Z,12.63
2018-05-18T07:13:04.084Z,12.73
2018-05-18T07:14:14.093Z,12.76
2018-05-18T07:15:24.113Z,13.01
2018-05-18T07:16:34.190Z,12.94
2018-05-18T07:17:44.125Z,12.87
2018-05-18T07:18:54.146Z,12.95
2018-05-18T07:20:04.416Z,13.02
2018-05-18T07:21:14.439Z,13.05
2018-05-18T07:22:23.914Z,13.03
2018-05-18T07:23:33.686Z,13.08
2018-05-18T07:24:43.686Z,13.21
2018-05-18T07:25:53.706Z,13.16
2018-05-18T07:27:03.173Z,13.24
2018-05-18T07:28:12.906Z,13.13
2018-05-18T07:29:22.909Z,13.09
2018-05-18T07:30:32.635Z,13.23
2018-05-18T07:31:42.653Z,13.24
2018-05-18T07:32:52.638Z,13.24
2018-05-18T07:34:02.604Z,13.28
2018-05-18T07:35:12.329Z,13.3
2018-05-18T07:36:22.435Z,13.39
2018-05-18T07:37:32.402Z,13.5
2018-05-18T07:38:42.421Z,13.4
2018-05-18T07:39:52.462Z,13.36
2018-05-18T07:41:02.439Z,13.31
2018-05-18T07:42:12.796Z,13.33
2018-05-18T07:43:22.843Z,13.43
2018-05-18T07:44:32.890Z,13.67
2018-05-18T07:45:42.953Z,13.79
2018-05-18T07:46:52.986Z,13.89
2018-05-18T07:48:02.546Z,14.05
2018-05-18T07:49:12.312Z,14.03
2018-05-18T07:50:22.063Z,13.95
2018-05-18T07:51:32.076Z,13.78
2018-05-18T07:52:42.079Z,13.79
2018-05-18T07:53:52.104Z,13.89
2018-05-18T07:55:02.137Z,13.87
2018-05-18T07:56:11.886Z,13.89
2018-05-18T07:57:21.366Z,14
2018-05-18T07:58:30.950Z,13.94
2018-05-18T07:59:41.137Z,14.03
2018-05-18T08:00:50.910Z,13.98
2018-05-18T08:02:00.913Z,13.97
2018-05-18T08:03:10.928Z,13.98
2018-05-18T08:04:21.005Z,14.05
2018-05-18T08:05:31.021Z,14
2018-05-18T08:06:40.506Z,14.04
2018-05-18T08:07:50.689Z,14.07
2018-05-18T08:09:01.118Z,14.08
2018-05-18T08:10:10.616Z,14.2
2018-05-18T08:11:20.704Z,14.15
2018-05-18T08:12:30.701Z,13.95
2018-05-18T08:13:40.561Z,13.98
2018-05-18T08:14:50.551Z,14.01
2018-05-18T08:16:00.580Z,13.89
2018-05-18T08:17:10.674Z,13.85
2018-05-18T08:18:20.899Z,13.89
2018-05-18T08:19:30.654Z,14.01
2018-05-18T08:20:40.385Z,14.05
2018-05-18T08:21:50.163Z,13.91
2018-05-18T08:23:00.156Z,14.05
2018-05-18T08:24:10.173Z,14
2018-05-18T08:25:19.923Z,14.08
2018-05-18T08:26:29.936Z,14.28
2018-05-18T08:27:39.856Z,14.36
2018-05-18T08:28:49.592Z,14.45
2018-05-18T08:29:59.654Z,14.66
2018-05-18T08:31:09.631Z,14.74
2018-05-18T08:32:19.641Z,14.74
2018-05-18T08:33:29.668Z,14.74
2018-05-18T08:34:39.684Z,14.74
2018-05-18T08:35:49.745Z,14.63
2018-05-18T08:36:59.760Z,14.66
2018-05-18T08:38:09.773Z,14.92
2018-05-18T08:39:19.569Z,14.92
2018-05-18T08:40:29.560Z,14.97
2018-05-18T08:41:39.555Z,14.59
2018-05-18T08:42:49.284Z,14.48
2018-05-18T08:43:59.357Z,14.52
2018-05-18T08:45:09.408Z,14.48
2018-05-18T08:46:18.889Z,14.45
2018-05-18T08:47:28.660Z,14.49
2018-05-18T08:48:38.914Z,14.48
2018-05-18T08:49:48.670Z,14.4
2018-05-18T08:50:58.692Z,14.4
2018-05-18T08:52:08.432Z,14.36
2018-05-18T08:53:18.451Z,14.25
2018-05-18T08:54:28.477Z,14.34
2018-05-18T08:55:38.740Z,14.3
2018-05-18T08:56:48.736Z,14.45
2018-05-18T08:57:58.217Z,14.48
2018-05-18T08:59:08.218Z,14.48
2018-05-18T09:00:17.707Z,14.59
2018-05-18T09:01:27.917Z,14.79
2018-05-18T09:02:37.940Z,14.79
2018-05-18T09:03:47.938Z,14.9
2018-05-18T09:04:57.465Z,14.89
2018-05-18T09:06:07.544Z,14.82
2018-05-18T09:07:17.620Z,14.67
2018-05-18T09:08:27.644Z,14.74
2018-05-18T09:09:37.652Z,14.81
2018-05-18T09:10:47.910Z,14.59
2018-05-18T09:11:57.953Z,14.63
2018-05-18T09:13:07.686Z,14.81
2018-05-18T09:14:17.675Z,14.78
2018-05-18T09:15:27.709Z,14.56
2018-05-18T09:16:36.950Z,14.53
2018-05-18T09:17:46.738Z,14.61
2018-05-18T09:18:56.538Z,14.82
2018-05-18T09:20:06.572Z,14.86
2018-05-18T09:21:16.637Z,14.9
2018-05-18T09:22:26.400Z,14.79
2018-05-18T09:23:36.413Z,14.87
2018-05-18T09:24:46.401Z,14.87
2018-05-18T09:25:56.432Z,14.63
2018-05-18T09:27:05.896Z,14.51
2018-05-18T09:28:15.904Z,14.56
2018-05-18T09:29:25.873Z,14.43
2018-05-18T09:30:35.593Z,14.28
2018-05-18T09:31:45.599Z,14.28
2018-05-18T09:32:55.631Z,14.26
2018-05-18T09:34:05.830Z,14.33
2018-05-18T09:35:16.061Z,14.34
2018-05-18T09:36:26.046Z,14.26
2018-05-18T09:37:35.765Z,14.25
2018-05-18T09:38:45.768Z,14.23
2018-05-18T09:39:56.037Z,14.31
2018-05-18T09:41:06.125Z,14.56
2018-05-18T09:42:15.875Z,14.81
2018-05-18T09:43:25.606Z,14.87
2018-05-18T09:44:35.607Z,14.67
2018-05-18T09:45:45.341Z,14.55
2018-05-18T09:46:55.324Z,14.51
2018-05-18T09:48:05.050Z,14.63
2018-05-18T09:49:15.041Z,14.59
2018-05-18T09:50:24.765Z,14.62
2018-05-18T09:51:34.524Z,14.63
2018-05-18T09:52:44.521Z,14.68
2018-05-18T09:53:54.515Z,14.63
2018-05-18T09:55:04.694Z,14.66
2018-05-18T09:56:15.733Z,14.74
2018-05-18T09:57:25.839Z,14.87
2018-05-18T09:58:35.872Z,15.02
2018-05-18T09:59:46.130Z,14.92
2018-05-18T10:00:56.121Z,14.89
2018-05-18T10:02:06.192Z,14.92
2018-05-18T10:03:16.207Z,14.89
2018-05-18T10:04:25.929Z,14.89
2018-05-18T10:05:35.666Z,14.81
2018-05-18T10:06:45.154Z,14.66
2018-05-18T10:07:55.194Z,14.59
2018-05-18T10:09:05.197Z,14.67
2018-05-18T10:10:15.173Z,14.71
2018-05-18T10:11:25.159Z,14.82
2018-05-18T10:12:35.205Z,15.07
2018-05-18T10:13:45.186Z,15.22
2018-05-18T10:14:55.203Z,15.36
2018-05-18T10:16:05.179Z,15.37
2018-05-18T10:17:15.183Z,15.26
2018-05-18T10:18:25.183Z,15.19
2018-05-18T10:19:35.287Z,15.18
2018-05-18T10:20:44.758Z,15.35
2018-05-18T10:21:54.239Z,15.57
2018-05-18T10:23:03.972Z,15.69
2018-05-18T10:24:13.944Z,15.85
2018-05-18T10:25:23.423Z,15.87
2018-05-18T10:26:33.435Z,15.85
2018-05-18T10:27:43.423Z,15.94
2018-05-18T10:28:52.887Z,15.99
2018-05-18T10:30:02.887Z,15.85
2018-05-18T10:31:12.621Z,15.84
2018-05-18T10:32:22.641Z,15.75
2018-05-18T10:33:32.360Z,15.73
2018-05-18T10:34:42.347Z,15.76
2018-05-18T10:35:52.378Z,15.87
2018-05-18T10:37:02.361Z,15.75
2018-05-18T10:38:12.360Z,15.78
2018-05-18T10:39:22.360Z,15.87
2018-05-18T10:40:32.337Z,16.09
2018-05-18T10:41:42.077Z,16.25
2018-05-18T10:42:52.123Z,16.31
2018-05-18T10:44:01.846Z,16.29
2018-05-18T10:45:11.843Z,16.37
2018-05-18T10:46:21.959Z,16.47
2018-05-18T10:47:31.950Z,16.44
2018-05-18T10:48:41.943Z,16.37
2018-05-18T10:49:51.163Z,16.21
2018-05-18T10:51:01.188Z,16.25
2018-05-18T10:52:10.925Z,16.1
2018-05-18T10:53:20.694Z,16
2018-05-18T10:54:30.680Z,15.84
2018-05-18T10:55:40.669Z,15.98
2018-05-18T10:56:50.416Z,16.31
2018-05-18T10:58:00.686Z,16.44
2018-05-18T10:59:10.756Z,16.64
2018-05-18T11:00:20.501Z,16.82
2018-05-18T11:01:30.496Z,16.86
2018-05-18T11:02:40.557Z,16.8
2018-05-18T11:03:50.307Z,16.74
2018-05-18T11:05:00.058Z,16.69
2018-05-18T11:06:10.063Z,16.84
2018-05-18T11:07:20.052Z,16.76
2018-05-18T11:08:29.790Z,16.95
2018-05-18T11:09:39.516Z,17.13
2018-05-18T11:10:49.506Z,17.34
2018-05-18T11:11:59.587Z,17.52
2018-05-18T11:13:09.576Z,17.39
2018-05-18T11:14:19.632Z,17.3
2018-05-18T11:15:29.400Z,17.42
2018-05-18T11:16:39.137Z,17.53
2018-05-18T11:17:49.190Z,17.5
2018-05-18T11:18:59.203Z,17.47
2018-05-18T11:20:09.438Z,17.49
2018-05-18T11:21:19.576Z,17.14
2018-05-18T11:22:29.298Z,16.91
2018-05-18T11:23:39.283Z,16.72
2018-05-18T11:24:49.017Z,16.82
2018-05-18T11:25:58.762Z,16.65
2018-05-18T11:27:08.764Z,16.34
2018-05-18T11:28:18.774Z,16.32
2018-05-18T11:29:28.813Z,16.41
2018-05-18T11:30:38.835Z,16.43
2018-05-18T11:31:48.877Z,16.4
2018-05-18T11:32:58.947Z,16.36
2018-05-18T11:34:09.075Z,16.39
2018-05-18T11:35:18.678Z,16.22
2018-05-18T11:36:28.421Z,16.24
2018-05-18T11:37:38.170Z,16.24
2018-05-18T11:38:48.167Z,16.12
2018-05-18T11:39:58.183Z,16.09
2018-05-18T11:41:07.912Z,16.06
2018-05-18T11:42:17.906Z,16.09
2018-05-18T11:43:28.245Z,16.36
2018-05-18T11:44:38.249Z,16.37
2018-05-18T11:45:48.252Z,16.44
2018-05-18T11:46:58.250Z,16.47
2018-05-18T11:48:08.417Z,16.62
2018-05-18T11:49:18.105Z,16.73
2018-05-18T11:50:27.856Z,16.83
2018-05-18T11:51:37.848Z,16.72
2018-05-18T11:52:47.582Z,16.68
2018-05-18T11:53:57.581Z,16.69
2018-05-18T11:55:07.615Z,16.59
2018-05-18T11:56:17.433Z,16.57
2018-05-18T11:57:27.156Z,16.49
2018-05-18T11:58:37.157Z,16.36
2018-05-18T11:59:47.151Z,16.47
2018-05-18T12:00:57.182Z,16.47
2018-05-18T12:02:07.172Z,16.43
2018-05-18T12:03:16.894Z,16.5
2018-05-18T12:04:26.878Z,16.39
2018-05-18T12:05:36.635Z,16.32
2018-05-18T12:06:46.609Z,16.28
2018-05-18T12:07:56.342Z,16.18
2018-05-18T12:09:06.352Z,16.36
2018-05-18T12:10:16.343Z,16.51
2018-05-18T12:11:26.362Z,16.49
2018-05-18T12:12:36.112Z,16.41
2018-05-18T12:13:45.855Z,16.34
2018-05-18T12:14:55.855Z,16.18
2018-05-18T12:16:05.836Z,16
2018-05-18T12:17:15.562Z,16.02
2018-05-18T12:18:25.084Z,16.02
2018-05-18T12:19:35.063Z,16.03
2018-05-18T12:20:44.797Z,16
2018-05-18T12:21:54.806Z,16.05
2018-05-18T12:23:04.806Z,16.08
2018-05-18T12:24:14.881Z,15.99
2018-05-18T12:25:24.858Z,15.87
2018-05-18T12:26:34.842Z,15.8
2018-05-18T12:27:44.847Z,15.98
2018-05-18T12:28:54.878Z,16.05
2018-05-18T12:30:04.592Z,16.02
2018-05-18T12:31:14.315Z,16.09
2018-05-18T12:32:24.307Z,16.26
2018-05-18T12:33:34.275Z,16.49
2018-05-18T12:34:44.261Z,16.54
2018-05-18T12:35:54.275Z,16.69
2018-05-18T12:37:04.284Z,16.79
2018-05-18T12:38:13.847Z,16.76
2018-05-18T12:39:24.187Z,16.64
2018-05-18T12:40:34.168Z,16.69
2018-05-18T12:41:44.173Z,16.69
2018-05-18T12:42:54.159Z,16.44
2018-05-18T12:44:04.155Z,16.4
2018-05-18T12:45:13.882Z,16
2018-05-18T12:46:23.873Z,15.87
2018-05-18T12:47:33.631Z,15.73
2018-05-18T12:48:43.435Z,15.65
2018-05-18T12:49:53.410Z,15.55
2018-05-18T12:51:03.393Z,15.63
2018-05-18T12:52:13.409Z,15.72
2018-05-18T12:53:23.123Z,15.65
2018-05-18T12:54:33.114Z,15.72
2018-05-18T12:55:43.091Z,15.63
2018-05-18T12:56:52.820Z,15.81
2018-05-18T12:58:02.539Z,15.84
2018-05-18T12:59:12.522Z,16.09
2018-05-18T13:00:22.242Z,16.21
2018-05-18T13:01:31.961Z,16.13
2018-05-18T13:02:41.689Z,16.12
2018-05-18T13:03:51.147Z,15.94
2018-05-18T13:05:01.137Z,15.72
2018-05-18T13:06:10.946Z,15.62
2018-05-18T13:07:20.690Z,15.52
2018-05-18T13:08:30.666Z,15.47
2018-05-18T13:09:40.650Z,15.5
2018-05-18T13:10:50.372Z,15.55
2018-05-18T13:12:00.377Z,15.51
2018-05-18T13:13:10.093Z,15.52
2018-05-18T13:14:19.831Z,15.57
2018-05-18T13:15:29.812Z,15.62
2018-05-18T13:16:39.785Z,15.5
2018-05-18T13:17:49.522Z,15.48
2018-05-18T13:18:59.514Z,15.52
2018-05-18T13:20:09.496Z,15.59
2018-05-18T13:21:19.485Z,15.55
2018-05-18T13:22:29.214Z,15.47
2018-05-18T13:23:39.198Z,15.37
2018-05-18T13:24:49.201Z,15.33
2018-05-18T13:25:59.182Z,15.27
2018-05-18T13:27:09.168Z,15.29
2018-05-18T13:28:18.368Z,15.25
2018-05-18T13:29:28.348Z,15.43
2018-05-18T13:30:38.708Z,15.37
2018-05-18T13:31:48.768Z,15.29
2018-05-18T13:32:58.753Z,15.27
2018-05-18T13:34:08.739Z,15.25
2018-05-18T13:35:18.719Z,15.39
2018-05-18T13:36:28.717Z,15.43
2018-05-18T13:37:38.446Z,15.47
2018-05-18T13:38:48.463Z,15.5
2018-05-18T13:39:58.949Z,15.57
2018-05-18T13:41:08.928Z,15.55
2018-05-18T13:42:18.751Z,15.65
2018-05-18T13:43:28.810Z,15.69
2018-05-18T13:44:38.818Z,15.73
2018-05-18T13:45:48.578Z,15.69
2018-05-18T13:46:58.570Z,15.62
2018-05-18T13:48:08.560Z,15.66
2018-05-18T13:49:18.046Z,15.8
2018-05-18T13:50:28.047Z,15.91
2018-05-18T13:51:38.049Z,16.05
2018-05-18T13:52:48.129Z,16
2018-05-18T13:53:57.596Z,16.06
2018-05-18T13:55:07.329Z,15.83
2018-05-18T13:56:17.310Z,15.62
2018-05-18T13:57:27.298Z,15.63
2018-05-18T13:58:37.292Z,15.6
2018-05-18T13:59:47.288Z,15.6
2018-05-18T14:00:57.284Z,15.54
2018-05-18T14:02:07.286Z,15.55
2018-05-18T14:03:17.007Z,15.57
2018-05-18T14:04:26.724Z,15.48
2018-05-18T14:05:36.181Z,15.52
2018-05-18T14:06:45.901Z,15.51
2018-05-18T14:07:55.885Z,15.52
2018-05-18T14:09:05.603Z,15.57
2018-05-18T14:10:15.607Z,15.52
2018-05-18T14:11:25.601Z,15.51
2018-05-18T14:12:35.588Z,15.37
2018-05-18T14:13:45.558Z,15.39
2018-05-18T14:14:55.535Z,15.45
2018-05-18T14:16:05.539Z,15.45
2018-05-18T14:17:15.268Z,15.33
2018-05-18T14:18:25.247Z,15.39
2018-05-18T14:19:34.980Z,15.37
2018-05-18T14:20:44.980Z,15.44
2018-05-18T14:21:54.979Z,15.44
2018-05-18T14:23:04.956Z,15.59
2018-05-18T14:24:14.948Z,15.75
2018-05-18T14:25:24.816Z,15.78
2018-05-18T14:26:34.979Z,16
2018-05-18T14:27:44.988Z,15.88
2018-05-18T14:28:54.717Z,15.84
2018-05-18T14:30:04.729Z,15.87
2018-05-18T14:31:14.446Z,15.96
2018-05-18T14:32:24.173Z,16.05
2018-05-18T14:33:34.154Z,16.03
2018-05-18T14:34:44.142Z,16.1
2018-05-18T14:35:53.858Z,16.21
2018-05-18T14:37:03.838Z,16.05
2018-05-18T14:38:14.174Z,15.84
2018-05-18T14:39:23.941Z,15.76
2018-05-18T14:40:33.916Z,15.78
2018-05-18T14:41:43.912Z,15.67
2018-05-18T14:42:53.634Z,15.59
2018-05-18T14:44:03.663Z,15.55
2018-05-18T14:45:13.403Z,15.62
2018-05-18T14:46:23.384Z,15.66
2018-05-18T14:47:33.376Z,15.65
2018-05-18T14:48:43.096Z,15.45
2018-05-18T14:49:53.088Z,15.3
2018-05-18T14:51:02.618Z,15.19
2018-05-18T14:52:12.725Z,15.17
2018-05-18T14:53:22.706Z,15.27
2018-05-18T14:54:32.442Z,15.36
2018-05-18T14:55:42.428Z,15.45
2018-05-18T14:56:52.413Z,15.48
2018-05-18T14:58:02.126Z,15.5
2018-05-18T14:59:12.102Z,15.6
2018-05-18T15:00:22.070Z,15.7
2018-05-18T15:01:32.072Z,15.73
2018-05-18T15:02:42.048Z,15.76
2018-05-18T15:03:52.025Z,15.88
2018-05-18T15:05:02.011Z,15.76